sensor_id;sensor_type;location;lat;lon;timestamp;P1;durP1;ratioP1;P2;durP2;ratioP2
611;SDS011;293;53.888;11.464;2022-09-27T00:00:14;2.40;;;1.20;;
611;SDS011;293;53.888;11.464;2022-09-27T00:02:40;2.60;;;2.00;;
611;SDS011;293;53.888;11.464;2022-09-27T00:05:08;4.17;;;1.60;;
611;SDS011;293;53.888;11.464;2022-09-27T00:07:35;1.87;;;1.77;;
611;SDS011;293;53.888;11.464;2022-09-27T00:10:02;2.30;;;2.10;;
611;SDS011;293;53.888;11.464;2022-09-27T00:12:29;2.30;;;1.60;;
611;SDS011;293;53.888;11.464;2022-09-27T00:14:57;2.60;;;2.07;;
611;SDS011;293;53.888;11.464;2022-09-27T00:17:25;2.50;;;2.30;;
611;SDS011;293;53.888;11.464;2022-09-27T00:19:52;2.63;;;2.20;;
611;SDS011;293;53.888;11.464;2022-09-27T00:22:20;2.70;;;2.17;;
611;SDS011;293;53.888;11.464;2022-09-27T00:24:47;3.10;;;2.43;;
611;SDS011;293;53.888;11.464;2022-09-27T00:27:14;2.53;;;2.33;;
611;SDS011;293;53.888;11.464;2022-09-27T00:29:41;2.43;;;2.23;;
611;SDS011;293;53.888;11.464;2022-09-27T00:32:10;1.73;;;1.60;;
611;SDS011;293;53.888;11.464;2022-09-27T00:34:37;3.60;;;2.80;;
611;SDS011;293;53.888;11.464;2022-09-27T00:37:05;3.30;;;2.83;;
611;SDS011;293;53.888;11.464;2022-09-27T00:39:32;4.00;;;2.60;;
611;SDS011;293;53.888;11.464;2022-09-27T00:41:59;5.57;;;2.30;;
611;SDS011;293;53.888;11.464;2022-09-27T00:47:35;4.03;;;2.80;;
611;SDS011;293;53.888;11.464;2022-09-27T00:50:09;4.30;;;2.40;;
611;SDS011;293;53.888;11.464;2022-09-27T00:52:44;3.20;;;2.13;;
611;SDS011;293;53.888;11.464;2022-09-27T00:55:17;2.83;;;1.80;;
611;SDS011;293;53.888;11.464;2022-09-27T00:57:48;1.57;;;1.47;;
611;SDS011;293;53.888;11.464;2022-09-27T01:00:16;2.80;;;2.60;;
611;SDS011;293;53.888;11.464;2022-09-27T01:02:46;5.60;;;2.10;;
611;SDS011;293;53.888;11.464;2022-09-27T01:05:16;2.50;;;1.70;;
611;SDS011;293;53.888;11.464;2022-09-27T01:07:45;2.00;;;1.90;;
611;SDS011;293;53.888;11.464;2022-09-27T01:10:13;2.93;;;1.80;;
611;SDS011;293;53.888;11.464;2022-09-27T01:12:44;3.93;;;1.80;;
611;SDS011;293;53.888;11.464;2022-09-27T01:15:22;3.83;;;2.23;;
611;SDS011;293;53.888;11.464;2022-09-27T01:17:59;2.30;;;2.10;;
611;SDS011;293;53.888;11.464;2022-09-27T01:20:40;3.90;;;2.80;;
611;SDS011;293;53.888;11.464;2022-09-27T01:23:44;2.80;;;2.60;;
611;SDS011;293;53.888;11.464;2022-09-27T01:26:33;2.70;;;2.50;;
611;SDS011;293;53.888;11.464;2022-09-27T01:29:22;2.50;;;2.30;;
611;SDS011;293;53.888;11.464;2022-09-27T01:32:01;6.57;;;2.37;;
611;SDS011;293;53.888;11.464;2022-09-27T01:34:33;3.83;;;2.50;;
611;SDS011;293;53.888;11.464;2022-09-27T01:37:09;3.27;;;2.50;;
611;SDS011;293;53.888;11.464;2022-09-27T01:39:44;3.37;;;2.27;;
611;SDS011;293;53.888;11.464;2022-09-27T01:42:18;3.77;;;2.43;;
611;SDS011;293;53.888;11.464;2022-09-27T01:44:49;3.40;;;2.40;;
611;SDS011;293;53.888;11.464;2022-09-27T01:47:22;2.53;;;2.33;;
611;SDS011;293;53.888;11.464;2022-09-27T01:49:55;5.17;;;2.30;;
611;SDS011;293;53.888;11.464;2022-09-27T01:52:26;2.17;;;2.07;;
611;SDS011;293;53.888;11.464;2022-09-27T01:54:57;2.63;;;2.23;;
611;SDS011;293;53.888;11.464;2022-09-27T01:57:29;2.50;;;2.30;;
611;SDS011;293;53.888;11.464;2022-09-27T02:00:00;2.60;;;2.40;;
611;SDS011;293;53.888;11.464;2022-09-27T02:02:32;3.17;;;2.87;;
611;SDS011;293;53.888;11.464;2022-09-27T02:05:03;2.97;;;2.80;;
611;SDS011;293;53.888;11.464;2022-09-27T02:07:33;2.70;;;2.50;;
611;SDS011;293;53.888;11.464;2022-09-27T02:10:06;2.50;;;2.30;;
611;SDS011;293;53.888;11.464;2022-09-27T02:12:37;3.00;;;2.50;;
611;SDS011;293;53.888;11.464;2022-09-27T02:15:10;4.40;;;3.10;;
611;SDS011;293;53.888;11.464;2022-09-27T02:17:41;3.50;;;3.20;;
611;SDS011;293;53.888;11.464;2022-09-27T02:20:13;3.17;;;2.97;;
611;SDS011;293;53.888;11.464;2022-09-27T02:22:44;2.70;;;2.50;;
611;SDS011;293;53.888;11.464;2022-09-27T02:25:17;2.90;;;2.70;;
611;SDS011;293;53.888;11.464;2022-09-27T02:27:52;2.87;;;2.67;;
611;SDS011;293;53.888;11.464;2022-09-27T02:30:24;2.63;;;2.47;;
611;SDS011;293;53.888;11.464;2022-09-27T02:32:53;2.67;;;2.47;;
611;SDS011;293;53.888;11.464;2022-09-27T02:35:21;3.40;;;3.10;;
611;SDS011;293;53.888;11.464;2022-09-27T02:37:51;3.43;;;3.10;;
611;SDS011;293;53.888;11.464;2022-09-27T02:40:18;3.13;;;2.93;;
611;SDS011;293;53.888;11.464;2022-09-27T02:42:45;5.97;;;3.27;;
611;SDS011;293;53.888;11.464;2022-09-27T02:45:13;2.50;;;2.30;;
611;SDS011;293;53.888;11.464;2022-09-27T02:47:53;3.23;;;2.83;;
611;SDS011;293;53.888;11.464;2022-09-27T02:50:34;4.10;;;3.70;;
611;SDS011;293;53.888;11.464;2022-09-27T02:53:20;2.73;;;2.53;;
611;SDS011;293;53.888;11.464;2022-09-27T02:55:55;3.73;;;3.33;;
611;SDS011;293;53.888;11.464;2022-09-27T02:58:34;3.50;;;3.20;;
611;SDS011;293;53.888;11.464;2022-09-27T03:01:12;3.90;;;3.60;;
611;SDS011;293;53.888;11.464;2022-09-27T03:03:48;4.60;;;3.97;;
611;SDS011;293;53.888;11.464;2022-09-27T03:06:19;3.70;;;3.40;;
611;SDS011;293;53.888;11.464;2022-09-27T03:08:48;3.20;;;2.90;;
611;SDS011;293;53.888;11.464;2022-09-27T03:11:15;4.17;;;3.57;;
611;SDS011;293;53.888;11.464;2022-09-27T03:13:43;3.20;;;2.90;;
611;SDS011;293;53.888;11.464;2022-09-27T03:16:10;6.43;;;3.37;;
611;SDS011;293;53.888;11.464;2022-09-27T03:18:37;4.37;;;3.97;;
611;SDS011;293;53.888;11.464;2022-09-27T03:21:06;3.50;;;3.30;;
611;SDS011;293;53.888;11.464;2022-09-27T03:23:33;3.47;;;3.27;;
611;SDS011;293;53.888;11.464;2022-09-27T03:26:00;3.83;;;3.13;;
611;SDS011;293;53.888;11.464;2022-09-27T03:28:27;3.73;;;3.53;;
611;SDS011;293;53.888;11.464;2022-09-27T03:30:55;3.70;;;3.40;;
611;SDS011;293;53.888;11.464;2022-09-27T03:33:21;4.30;;;4.00;;
611;SDS011;293;53.888;11.464;2022-09-27T03:35:49;4.17;;;3.77;;
611;SDS011;293;53.888;11.464;2022-09-27T03:38:17;4.23;;;3.60;;
611;SDS011;293;53.888;11.464;2022-09-27T03:40:44;4.10;;;3.30;;
611;SDS011;293;53.888;11.464;2022-09-27T03:43:11;4.60;;;3.47;;
611;SDS011;293;53.888;11.464;2022-09-27T03:45:38;4.63;;;4.00;;
611;SDS011;293;53.888;11.464;2022-09-27T03:48:05;4.27;;;3.57;;
611;SDS011;293;53.888;11.464;2022-09-27T03:50:32;2.97;;;2.77;;
611;SDS011;293;53.888;11.464;2022-09-27T03:52:59;4.90;;;4.50;;
611;SDS011;293;53.888;11.464;2022-09-27T03:55:27;3.83;;;3.57;;
611;SDS011;293;53.888;11.464;2022-09-27T03:57:54;4.00;;;3.60;;
611;SDS011;293;53.888;11.464;2022-09-27T04:00:21;4.77;;;4.47;;
611;SDS011;293;53.888;11.464;2022-09-27T04:02:48;5.80;;;4.10;;
611;SDS011;293;53.888;11.464;2022-09-27T04:05:15;4.47;;;4.07;;
611;SDS011;293;53.888;11.464;2022-09-27T04:07:44;3.87;;;3.47;;
611;SDS011;293;53.888;11.464;2022-09-27T04:10:13;4.87;;;4.00;;
611;SDS011;293;53.888;11.464;2022-09-27T04:12:42;7.03;;;4.17;;
611;SDS011;293;53.888;11.464;2022-09-27T04:15:09;4.83;;;4.47;;
611;SDS011;293;53.888;11.464;2022-09-27T04:17:37;5.20;;;4.70;;
611;SDS011;293;53.888;11.464;2022-09-27T04:20:07;4.63;;;4.10;;
611;SDS011;293;53.888;11.464;2022-09-27T04:22:37;4.40;;;4.10;;
611;SDS011;293;53.888;11.464;2022-09-27T04:25:06;4.37;;;4.07;;
611;SDS011;293;53.888;11.464;2022-09-27T04:27:33;5.50;;;5.00;;
611;SDS011;293;53.888;11.464;2022-09-27T04:30:02;4.97;;;4.50;;
611;SDS011;293;53.888;11.464;2022-09-27T04:32:30;5.50;;;4.97;;
611;SDS011;293;53.888;11.464;2022-09-27T04:34:57;6.27;;;5.40;;
611;SDS011;293;53.888;11.464;2022-09-27T04:37:42;6.50;;;5.90;;
611;SDS011;293;53.888;11.464;2022-09-27T04:40:09;6.20;;;5.60;;
611;SDS011;293;53.888;11.464;2022-09-27T04:42:36;5.63;;;5.07;;
611;SDS011;293;53.888;11.464;2022-09-27T04:45:04;5.70;;;5.20;;
611;SDS011;293;53.888;11.464;2022-09-27T04:47:32;4.63;;;4.23;;
611;SDS011;293;53.888;11.464;2022-09-27T04:49:59;6.73;;;5.33;;
611;SDS011;293;53.888;11.464;2022-09-27T04:52:26;5.30;;;4.80;;
611;SDS011;293;53.888;11.464;2022-09-27T04:54:52;5.53;;;5.03;;
611;SDS011;293;53.888;11.464;2022-09-27T04:57:19;6.20;;;5.60;;
611;SDS011;293;53.888;11.464;2022-09-27T04:59:46;6.07;;;5.47;;
611;SDS011;293;53.888;11.464;2022-09-27T05:02:17;8.50;;;5.90;;
611;SDS011;293;53.888;11.464;2022-09-27T05:04:43;7.03;;;4.80;;
611;SDS011;293;53.888;11.464;2022-09-27T05:07:10;5.83;;;5.33;;
611;SDS011;293;53.888;11.464;2022-09-27T05:09:37;7.90;;;6.30;;
611;SDS011;293;53.888;11.464;2022-09-27T05:12:04;5.80;;;5.30;;
611;SDS011;293;53.888;11.464;2022-09-27T05:14:32;5.40;;;5.00;;
611;SDS011;293;53.888;11.464;2022-09-27T05:16:59;6.30;;;5.70;;
611;SDS011;293;53.888;11.464;2022-09-27T05:19:28;6.37;;;5.77;;
611;SDS011;293;53.888;11.464;2022-09-27T05:21:54;5.37;;;4.93;;
611;SDS011;293;53.888;11.464;2022-09-27T05:24:21;6.20;;;5.60;;
611;SDS011;293;53.888;11.464;2022-09-27T05:26:48;6.70;;;6.00;;
611;SDS011;293;53.888;11.464;2022-09-27T05:29:15;6.90;;;6.20;;
611;SDS011;293;53.888;11.464;2022-09-27T05:31:42;6.30;;;5.70;;
611;SDS011;293;53.888;11.464;2022-09-27T05:34:09;5.93;;;5.43;;
611;SDS011;293;53.888;11.464;2022-09-27T05:36:38;8.00;;;6.13;;
611;SDS011;293;53.888;11.464;2022-09-27T05:39:05;5.97;;;5.43;;
611;SDS011;293;53.888;11.464;2022-09-27T05:41:32;7.60;;;7.00;;
611;SDS011;293;53.888;11.464;2022-09-27T05:43:59;6.03;;;5.60;;
611;SDS011;293;53.888;11.464;2022-09-27T05:46:26;6.80;;;6.30;;
611;SDS011;293;53.888;11.464;2022-09-27T05:48:53;6.57;;;6.07;;
611;SDS011;293;53.888;11.464;2022-09-27T05:51:19;6.30;;;5.80;;
611;SDS011;293;53.888;11.464;2022-09-27T05:53:48;10.33;;;9.40;;
611;SDS011;293;53.888;11.464;2022-09-27T05:56:15;19.83;;;17.77;;
611;SDS011;293;53.888;11.464;2022-09-27T05:58:42;6.00;;;5.50;;
611;SDS011;293;53.888;11.464;2022-09-27T06:01:09;11.10;;;6.83;;
611;SDS011;293;53.888;11.464;2022-09-27T06:03:36;5.57;;;5.17;;
611;SDS011;293;53.888;11.464;2022-09-27T06:06:05;7.37;;;6.40;;
611;SDS011;293;53.888;11.464;2022-09-27T06:08:35;5.43;;;4.97;;
611;SDS011;293;53.888;11.464;2022-09-27T06:11:05;6.00;;;5.50;;
611;SDS011;293;53.888;11.464;2022-09-27T06:13:33;7.20;;;6.50;;
611;SDS011;293;53.888;11.464;2022-09-27T06:16:01;7.47;;;5.57;;
611;SDS011;293;53.888;11.464;2022-09-27T06:18:28;6.93;;;6.33;;
611;SDS011;293;53.888;11.464;2022-09-27T06:20:57;6.17;;;5.60;;
611;SDS011;293;53.888;11.464;2022-09-27T06:23:25;6.73;;;6.13;;
611;SDS011;293;53.888;11.464;2022-09-27T06:25:52;7.10;;;6.50;;
611;SDS011;293;53.888;11.464;2022-09-27T06:28:21;7.10;;;6.40;;
611;SDS011;293;53.888;11.464;2022-09-27T06:30:48;6.70;;;6.10;;
611;SDS011;293;53.888;11.464;2022-09-27T06:33:16;6.00;;;5.50;;
611;SDS011;293;53.888;11.464;2022-09-27T06:35:44;6.33;;;5.83;;
611;SDS011;293;53.888;11.464;2022-09-27T06:38:14;6.77;;;6.17;;
611;SDS011;293;53.888;11.464;2022-09-27T06:40:42;7.47;;;6.87;;
611;SDS011;293;53.888;11.464;2022-09-27T06:43:11;5.27;;;4.83;;
611;SDS011;293;53.888;11.464;2022-09-27T06:45:40;7.20;;;6.33;;
611;SDS011;293;53.888;11.464;2022-09-27T06:48:08;6.50;;;5.53;;
611;SDS011;293;53.888;11.464;2022-09-27T06:50:37;6.83;;;6.23;;
611;SDS011;293;53.888;11.464;2022-09-27T06:53:06;5.87;;;5.23;;
611;SDS011;293;53.888;11.464;2022-09-27T06:55:34;5.80;;;5.17;;
611;SDS011;293;53.888;11.464;2022-09-27T06:58:02;6.67;;;6.17;;
611;SDS011;293;53.888;11.464;2022-09-27T07:00:49;6.03;;;5.43;;
611;SDS011;293;53.888;11.464;2022-09-27T07:03:18;6.40;;;5.83;;
611;SDS011;293;53.888;11.464;2022-09-27T07:05:53;7.20;;;6.50;;
611;SDS011;293;53.888;11.464;2022-09-27T07:08:24;6.80;;;6.20;;
611;SDS011;293;53.888;11.464;2022-09-27T07:10:53;8.73;;;8.03;;
611;SDS011;293;53.888;11.464;2022-09-27T07:13:20;7.10;;;6.40;;
611;SDS011;293;53.888;11.464;2022-09-27T07:15:49;7.80;;;6.70;;
611;SDS011;293;53.888;11.464;2022-09-27T07:18:16;7.73;;;7.03;;
611;SDS011;293;53.888;11.464;2022-09-27T07:20:43;10.10;;;9.10;;
611;SDS011;293;53.888;11.464;2022-09-27T07:23:10;11.70;;;10.50;;
611;SDS011;293;53.888;11.464;2022-09-27T07:25:37;34.37;;;22.70;;
611;SDS011;293;53.888;11.464;2022-09-27T07:28:04;14.53;;;12.07;;
611;SDS011;293;53.888;11.464;2022-09-27T07:30:32;15.00;;;10.90;;
611;SDS011;293;53.888;11.464;2022-09-27T07:33:03;11.27;;;8.50;;
611;SDS011;293;53.888;11.464;2022-09-27T07:35:31;7.73;;;7.03;;
611;SDS011;293;53.888;11.464;2022-09-27T07:37:59;13.70;;;9.60;;
611;SDS011;293;53.888;11.464;2022-09-27T07:40:27;7.80;;;7.00;;
611;SDS011;293;53.888;11.464;2022-09-27T07:42:54;6.73;;;6.13;;
611;SDS011;293;53.888;11.464;2022-09-27T07:45:22;6.43;;;5.80;;
611;SDS011;293;53.888;11.464;2022-09-27T07:47:49;4.97;;;4.43;;
611;SDS011;293;53.888;11.464;2022-09-27T07:50:17;5.50;;;4.73;;
611;SDS011;293;53.888;11.464;2022-09-27T07:52:45;4.77;;;4.37;;
611;SDS011;293;53.888;11.464;2022-09-27T07:55:15;4.60;;;4.30;;
611;SDS011;293;53.888;11.464;2022-09-27T07:57:43;4.73;;;4.43;;
611;SDS011;293;53.888;11.464;2022-09-27T08:00:10;5.57;;;4.00;;
611;SDS011;293;53.888;11.464;2022-09-27T08:02:39;4.90;;;4.60;;
611;SDS011;293;53.888;11.464;2022-09-27T08:05:07;4.97;;;4.57;;
611;SDS011;293;53.888;11.464;2022-09-27T08:07:36;5.10;;;4.70;;
611;SDS011;293;53.888;11.464;2022-09-27T08:10:04;5.47;;;4.60;;
611;SDS011;293;53.888;11.464;2022-09-27T08:12:32;5.03;;;4.63;;
611;SDS011;293;53.888;11.464;2022-09-27T08:14:59;5.80;;;5.40;;
611;SDS011;293;53.888;11.464;2022-09-27T08:17:27;5.67;;;5.27;;
611;SDS011;293;53.888;11.464;2022-09-27T08:19:54;4.73;;;4.43;;
611;SDS011;293;53.888;11.464;2022-09-27T08:22:21;6.83;;;6.23;;
611;SDS011;293;53.888;11.464;2022-09-27T08:24:50;5.40;;;5.00;;
611;SDS011;293;53.888;11.464;2022-09-27T08:27:17;5.60;;;4.50;;
611;SDS011;293;53.888;11.464;2022-09-27T08:29:43;4.83;;;4.47;;
611;SDS011;293;53.888;11.464;2022-09-27T08:32:11;32.23;;;28.80;;
611;SDS011;293;53.888;11.464;2022-09-27T08:34:38;35.43;;;31.87;;
611;SDS011;293;53.888;11.464;2022-09-27T08:37:06;19.87;;;17.77;;
611;SDS011;293;53.888;11.464;2022-09-27T08:39:32;7.07;;;6.47;;
611;SDS011;293;53.888;11.464;2022-09-27T08:42:03;5.90;;;5.50;;
611;SDS011;293;53.888;11.464;2022-09-27T08:44:40;6.83;;;6.20;;
611;SDS011;293;53.888;11.464;2022-09-27T08:47:14;5.00;;;4.63;;
611;SDS011;293;53.888;11.464;2022-09-27T08:49:44;5.90;;;5.40;;
611;SDS011;293;53.888;11.464;2022-09-27T08:52:16;7.40;;;5.93;;
611;SDS011;293;53.888;11.464;2022-09-27T08:54:46;5.23;;;4.83;;
611;SDS011;293;53.888;11.464;2022-09-27T08:57:17;4.13;;;3.83;;
611;SDS011;293;53.888;11.464;2022-09-27T08:59:45;5.27;;;4.70;;
611;SDS011;293;53.888;11.464;2022-09-27T09:02:16;4.60;;;4.30;;
611;SDS011;293;53.888;11.464;2022-09-27T09:04:45;5.73;;;5.20;;
611;SDS011;293;53.888;11.464;2022-09-27T09:07:20;4.50;;;4.20;;
611;SDS011;293;53.888;11.464;2022-09-27T09:09:59;5.10;;;4.77;;
611;SDS011;293;53.888;11.464;2022-09-27T09:12:40;3.90;;;3.60;;
611;SDS011;293;53.888;11.464;2022-09-27T09:15:24;4.20;;;3.90;;
611;SDS011;293;53.888;11.464;2022-09-27T09:18:21;3.10;;;2.90;;
611;SDS011;293;53.888;11.464;2022-09-27T09:21:01;5.60;;;3.80;;
611;SDS011;293;53.888;11.464;2022-09-27T09:26:31;8.10;;;7.30;;
611;SDS011;293;53.888;11.464;2022-09-27T09:29:09;5.10;;;4.60;;
611;SDS011;293;53.888;11.464;2022-09-27T09:31:52;7.40;;;6.07;;
611;SDS011;293;53.888;11.464;2022-09-27T09:34:24;5.67;;;4.80;;
611;SDS011;293;53.888;11.464;2022-09-27T09:36:55;6.63;;;4.70;;
611;SDS011;293;53.888;11.464;2022-09-27T09:39:25;6.73;;;6.13;;
611;SDS011;293;53.888;11.464;2022-09-27T09:42:01;4.30;;;3.90;;
611;SDS011;293;53.888;11.464;2022-09-27T09:44:37;3.77;;;3.50;;
611;SDS011;293;53.888;11.464;2022-09-27T09:47:12;4.30;;;3.90;;
611;SDS011;293;53.888;11.464;2022-09-27T09:49:46;5.27;;;3.93;;
611;SDS011;293;53.888;11.464;2022-09-27T09:52:18;4.17;;;3.87;;
611;SDS011;293;53.888;11.464;2022-09-27T09:54:49;3.60;;;2.87;;
611;SDS011;293;53.888;11.464;2022-09-27T09:57:21;3.47;;;3.20;;
611;SDS011;293;53.888;11.464;2022-09-27T09:59:54;3.10;;;2.90;;
611;SDS011;293;53.888;11.464;2022-09-27T10:02:26;3.80;;;3.50;;
611;SDS011;293;53.888;11.464;2022-09-27T10:04:57;3.87;;;3.57;;
611;SDS011;293;53.888;11.464;2022-09-27T10:07:24;2.70;;;2.50;;
611;SDS011;293;53.888;11.464;2022-09-27T10:09:53;2.43;;;2.23;;
611;SDS011;293;53.888;11.464;2022-09-27T10:12:25;2.00;;;1.90;;
611;SDS011;293;53.888;11.464;2022-09-27T10:14:54;3.40;;;1.77;;
611;SDS011;293;53.888;11.464;2022-09-27T10:17:26;1.50;;;1.40;;
611;SDS011;293;53.888;11.464;2022-09-27T10:20:04;0.93;;;0.93;;
611;SDS011;293;53.888;11.464;2022-09-27T10:22:33;1.50;;;1.40;;
611;SDS011;293;53.888;11.464;2022-09-27T10:25:03;0.83;;;0.80;;
611;SDS011;293;53.888;11.464;2022-09-27T10:27:36;1.10;;;0.93;;
611;SDS011;293;53.888;11.464;2022-09-27T10:30:12;0.87;;;0.87;;
611;SDS011;293;53.888;11.464;2022-09-27T10:32:49;1.40;;;1.30;;
611;SDS011;293;53.888;11.464;2022-09-27T10:35:19;1.30;;;1.20;;
611;SDS011;293;53.888;11.464;2022-09-27T10:37:58;1.40;;;1.30;;
611;SDS011;293;53.888;11.464;2022-09-27T10:40:45;1.33;;;1.30;;
611;SDS011;293;53.888;11.464;2022-09-27T10:43:21;1.57;;;1.47;;
611;SDS011;293;53.888;11.464;2022-09-27T10:45:56;1.00;;;1.00;;
611;SDS011;293;53.888;11.464;2022-09-27T10:48:30;1.47;;;1.30;;
611;SDS011;293;53.888;11.464;2022-09-27T10:50:58;1.50;;;1.07;;
611;SDS011;293;53.888;11.464;2022-09-27T10:53:26;1.97;;;0.90;;
611;SDS011;293;53.888;11.464;2022-09-27T10:55:55;1.27;;;0.70;;
611;SDS011;293;53.888;11.464;2022-09-27T10:58:24;2.60;;;1.40;;
611;SDS011;293;53.888;11.464;2022-09-27T11:00:56;1.53;;;1.40;;
611;SDS011;293;53.888;11.464;2022-09-27T11:03:26;1.33;;;0.50;;
611;SDS011;293;53.888;11.464;2022-09-27T11:05:55;1.77;;;1.20;;
611;SDS011;293;53.888;11.464;2022-09-27T11:08:27;1.30;;;1.20;;
611;SDS011;293;53.888;11.464;2022-09-27T11:11:04;1.40;;;1.30;;
611;SDS011;293;53.888;11.464;2022-09-27T11:13:41;1.60;;;1.17;;
611;SDS011;293;53.888;11.464;2022-09-27T11:16:27;1.20;;;1.00;;
611;SDS011;293;53.888;11.464;2022-09-27T11:19:06;1.20;;;1.10;;
611;SDS011;293;53.888;11.464;2022-09-27T11:21:47;2.97;;;1.20;;
611;SDS011;293;53.888;11.464;2022-09-27T11:24:26;1.20;;;1.10;;
611;SDS011;293;53.888;11.464;2022-09-27T11:27:05;1.40;;;1.30;;
611;SDS011;293;53.888;11.464;2022-09-27T11:29:44;1.60;;;1.47;;
611;SDS011;293;53.888;11.464;2022-09-27T11:32:25;2.67;;;0.77;;
611;SDS011;293;53.888;11.464;2022-09-27T11:35:12;1.33;;;1.00;;
611;SDS011;293;53.888;11.464;2022-09-27T11:37:54;2.60;;;0.90;;
611;SDS011;293;53.888;11.464;2022-09-27T11:40:29;0.80;;;0.80;;
611;SDS011;293;53.888;11.464;2022-09-27T11:43:08;1.43;;;0.90;;
611;SDS011;293;53.888;11.464;2022-09-27T11:45:55;1.53;;;0.67;;
611;SDS011;293;53.888;11.464;2022-09-27T11:48:33;2.50;;;1.20;;
611;SDS011;293;53.888;11.464;2022-09-27T11:51:18;1.07;;;0.97;;
611;SDS011;293;53.888;11.464;2022-09-27T11:53:55;1.90;;;1.00;;
611;SDS011;293;53.888;11.464;2022-09-27T11:56:34;1.77;;;1.20;;
611;SDS011;293;53.888;11.464;2022-09-27T11:59:12;0.93;;;0.70;;
611;SDS011;293;53.888;11.464;2022-09-27T12:01:55;1.90;;;1.53;;
611;SDS011;293;53.888;11.464;2022-09-27T12:04:40;3.07;;;1.50;;
611;SDS011;293;53.888;11.464;2022-09-27T12:07:27;1.53;;;0.83;;
611;SDS011;293;53.888;11.464;2022-09-27T12:10:03;1.37;;;0.60;;
611;SDS011;293;53.888;11.464;2022-09-27T12:12:34;3.43;;;1.00;;
611;SDS011;293;53.888;11.464;2022-09-27T12:15:05;1.10;;;0.80;;
611;SDS011;293;53.888;11.464;2022-09-27T12:17:40;2.20;;;0.70;;
611;SDS011;293;53.888;11.464;2022-09-27T12:20:13;1.37;;;0.70;;
611;SDS011;293;53.888;11.464;2022-09-27T12:22:48;2.07;;;0.70;;
611;SDS011;293;53.888;11.464;2022-09-27T12:25:20;3.37;;;1.87;;
611;SDS011;293;53.888;11.464;2022-09-27T12:27:52;3.20;;;0.70;;
611;SDS011;293;53.888;11.464;2022-09-27T12:30:23;0.70;;;0.70;;
611;SDS011;293;53.888;11.464;2022-09-27T12:32:52;1.23;;;0.77;;
611;SDS011;293;53.888;11.464;2022-09-27T12:35:28;0.80;;;0.80;;
611;SDS011;293;53.888;11.464;2022-09-27T12:37:58;1.20;;;0.60;;
611;SDS011;293;53.888;11.464;2022-09-27T12:40:30;2.07;;;0.60;;
611;SDS011;293;53.888;11.464;2022-09-27T12:42:59;0.90;;;0.70;;
611;SDS011;293;53.888;11.464;2022-09-27T12:45:35;0.90;;;0.50;;
611;SDS011;293;53.888;11.464;2022-09-27T12:48:10;1.13;;;0.87;;
611;SDS011;293;53.888;11.464;2022-09-27T12:50:47;1.30;;;0.80;;
611;SDS011;293;53.888;11.464;2022-09-27T12:53:19;0.90;;;0.60;;
611;SDS011;293;53.888;11.464;2022-09-27T12:56:02;1.10;;;0.50;;
611;SDS011;293;53.888;11.464;2022-09-27T12:58:58;0.70;;;0.53;;
611;SDS011;293;53.888;11.464;2022-09-27T13:01:43;1.80;;;0.50;;
611;SDS011;293;53.888;11.464;2022-09-27T13:04:23;1.47;;;0.70;;
611;SDS011;293;53.888;11.464;2022-09-27T13:07:06;1.27;;;0.40;;
611;SDS011;293;53.888;11.464;2022-09-27T13:09:45;2.00;;;0.43;;
611;SDS011;293;53.888;11.464;2022-09-27T13:12:26;0.90;;;0.80;;
611;SDS011;293;53.888;11.464;2022-09-27T13:14:57;1.53;;;0.40;;
611;SDS011;293;53.888;11.464;2022-09-27T13:26:20;0.70;;;0.53;;
611;SDS011;293;53.888;11.464;2022-09-27T13:29:09;0.43;;;0.43;;
611;SDS011;293;53.888;11.464;2022-09-27T13:34:46;0.60;;;0.50;;
611;SDS011;293;53.888;11.464;2022-09-27T13:40:21;1.23;;;0.60;;
611;SDS011;293;53.888;11.464;2022-09-27T13:43:03;0.63;;;0.50;;
611;SDS011;293;53.888;11.464;2022-09-27T13:45:40;0.77;;;0.60;;
611;SDS011;293;53.888;11.464;2022-09-27T13:48:15;0.50;;;0.40;;
611;SDS011;293;53.888;11.464;2022-09-27T13:50:47;1.10;;;0.60;;
611;SDS011;293;53.888;11.464;2022-09-27T13:53:22;0.93;;;0.70;;
611;SDS011;293;53.888;11.464;2022-09-27T13:55:54;0.67;;;0.67;;
611;SDS011;293;53.888;11.464;2022-09-27T13:58:36;0.97;;;0.73;;
611;SDS011;293;53.888;11.464;2022-09-27T14:01:11;1.57;;;1.30;;
611;SDS011;293;53.888;11.464;2022-09-27T14:03:46;0.77;;;0.70;;
611;SDS011;293;53.888;11.464;2022-09-27T14:06:16;1.33;;;0.70;;
611;SDS011;293;53.888;11.464;2022-09-27T14:08:48;1.43;;;0.70;;
611;SDS011;293;53.888;11.464;2022-09-27T14:11:19;2.30;;;0.90;;
611;SDS011;293;53.888;11.464;2022-09-27T14:13:51;4.00;;;1.53;;
611;SDS011;293;53.888;11.464;2022-09-27T14:16:19;5.07;;;4.67;;
611;SDS011;293;53.888;11.464;2022-09-27T14:18:47;2.80;;;2.20;;
611;SDS011;293;53.888;11.464;2022-09-27T14:21:20;3.13;;;2.53;;
611;SDS011;293;53.888;11.464;2022-09-27T14:23:52;2.13;;;1.50;;
611;SDS011;293;53.888;11.464;2022-09-27T14:26:36;1.03;;;0.63;;
611;SDS011;293;53.888;11.464;2022-09-27T14:29:13;0.90;;;0.50;;
611;SDS011;293;53.888;11.464;2022-09-27T14:31:41;3.73;;;1.03;;
611;SDS011;293;53.888;11.464;2022-09-27T14:34:10;1.50;;;0.63;;
611;SDS011;293;53.888;11.464;2022-09-27T14:36:38;2.93;;;1.00;;
611;SDS011;293;53.888;11.464;2022-09-27T14:39:23;2.30;;;1.20;;
611;SDS011;293;53.888;11.464;2022-09-27T14:41:56;1.10;;;0.90;;
611;SDS011;293;53.888;11.464;2022-09-27T14:44:25;0.60;;;0.37;;
611;SDS011;293;53.888;11.464;2022-09-27T14:49:47;0.87;;;0.40;;
611;SDS011;293;53.888;11.464;2022-09-27T14:52:15;0.93;;;0.70;;
611;SDS011;293;53.888;11.464;2022-09-27T14:54:53;0.70;;;0.70;;
611;SDS011;293;53.888;11.464;2022-09-27T14:57:22;0.80;;;0.80;;
611;SDS011;293;53.888;11.464;2022-09-27T14:59:51;0.80;;;0.70;;
611;SDS011;293;53.888;11.464;2022-09-27T15:02:18;1.00;;;0.73;;
611;SDS011;293;53.888;11.464;2022-09-27T15:04:47;2.00;;;0.83;;
611;SDS011;293;53.888;11.464;2022-09-27T15:07:15;1.03;;;0.80;;
611;SDS011;293;53.888;11.464;2022-09-27T15:09:43;2.80;;;1.10;;
611;SDS011;293;53.888;11.464;2022-09-27T15:12:11;1.10;;;1.00;;
611;SDS011;293;53.888;11.464;2022-09-27T15:14:46;1.57;;;1.47;;
611;SDS011;293;53.888;11.464;2022-09-27T15:17:17;2.10;;;0.90;;
611;SDS011;293;53.888;11.464;2022-09-27T15:19:56;2.80;;;1.40;;
611;SDS011;293;53.888;11.464;2022-09-27T15:22:30;1.07;;;1.00;;
611;SDS011;293;53.888;11.464;2022-09-27T15:25:10;1.40;;;1.30;;
611;SDS011;293;53.888;11.464;2022-09-27T15:27:45;1.03;;;1.03;;
611;SDS011;293;53.888;11.464;2022-09-27T15:30:18;1.23;;;1.00;;
611;SDS011;293;53.888;11.464;2022-09-27T15:32:51;0.80;;;0.80;;
611;SDS011;293;53.888;11.464;2022-09-27T15:35:21;0.97;;;0.97;;
611;SDS011;293;53.888;11.464;2022-09-27T15:37:51;1.07;;;0.97;;
611;SDS011;293;53.888;11.464;2022-09-27T15:43:32;2.63;;;1.60;;
611;SDS011;293;53.888;11.464;2022-09-27T15:46:04;1.00;;;1.00;;
611;SDS011;293;53.888;11.464;2022-09-27T15:48:47;1.53;;;1.43;;
611;SDS011;293;53.888;11.464;2022-09-27T15:51:46;1.40;;;1.10;;
611;SDS011;293;53.888;11.464;2022-09-27T15:54:16;1.00;;;0.90;;
611;SDS011;293;53.888;11.464;2022-09-27T15:56:43;1.00;;;0.90;;
611;SDS011;293;53.888;11.464;2022-09-27T15:59:11;1.30;;;1.20;;
611;SDS011;293;53.888;11.464;2022-09-27T16:01:44;0.63;;;0.63;;
611;SDS011;293;53.888;11.464;2022-09-27T16:04:13;1.43;;;1.20;;
611;SDS011;293;53.888;11.464;2022-09-27T16:06:40;0.93;;;0.93;;
611;SDS011;293;53.888;11.464;2022-09-27T16:09:08;1.67;;;1.57;;
611;SDS011;293;53.888;11.464;2022-09-27T16:11:41;4.07;;;2.20;;
611;SDS011;293;53.888;11.464;2022-09-27T16:14:08;1.57;;;1.47;;
611;SDS011;293;53.888;11.464;2022-09-27T16:16:35;1.40;;;1.27;;
611;SDS011;293;53.888;11.464;2022-09-27T16:19:04;2.10;;;1.87;;
611;SDS011;293;53.888;11.464;2022-09-27T16:21:32;1.73;;;1.33;;
611;SDS011;293;53.888;11.464;2022-09-27T16:23:59;1.53;;;1.43;;